Black, Illinois
Current Conditions -  °F | °C
As of 2:35 AM on Tuesday 21 Oct 2014 (Local Time) from KFWC Reporting Station
Clear Clear  
Wind Chill: 46°   Ceiling: Unl
Heat Index: 46°   Visibility: 10mi
Dew Point: 44°   Wind: 0mph
Humidity: 93%   Direction: NA
Pressure: 30"   Gusts: NA
Location:  38.3535°N, 88.085°W
Report Text: KFWC 210735Z AUTO 00000KT 10SM CLR 08/07 A3000 RMK AO1 T00750065
Loading
Personal Weather Stations






























Interactive Weather Map
Tropical Storm Tracking
New forecast layout! Learn more

10-Day Weather Forecast

Advertisements
Track Severe Weather on mobile